Time;durP1;ratioP1;P1;durP2;ratioP2;P2;SDS_P1;SDS_P2;PMS_P1;PMS_P2;Temp;Humidity;BMP_temperature;BMP_pressure;BME280_temperature;BME280_humidity;BME280_pressure;Samples;Min_cycle;Max_cycle;Signal;HPM_P1;HPM_P2
2023/04/04 00:00:14;;;;;;;9.50;2.00;;;1.90;81.10;;;;;;5061356;28;20505;-58
2023/04/04 00:02:40;;;;;;;3.50;2.47;;;1.90;79.20;;;;;;5062764;28;20043;-59
2023/04/04 00:05:07;;;;;;;1.80;1.50;;;1.90;80.80;;;;;;5083689;28;20488;-58
2023/04/04 00:07:33;;;;;;;3.63;1.25;;;1.90;80.60;;;;;;5061995;28;20511;-57
2023/04/04 00:09:58;;;;;;;3.03;1.30;;;1.90;81.30;;;;;;5063489;28;20099;-58
2023/04/04 00:12:24;;;;;;;2.22;1.30;;;1.80;82.30;;;;;;5063543;28;20074;-58
2023/04/04 00:14:50;;;;;;;1.60;1.10;;;1.80;82.10;;;;;;5063127;28;20028;-59
2023/04/04 00:17:16;;;;;;;6.18;1.80;;;1.70;81.60;;;;;;5063220;28;20123;-57
2023/04/04 00:19:42;;;;;;;2.13;1.15;;;1.60;80.10;;;;;;5067107;28;20031;-57
2023/04/04 00:22:08;;;;;;;3.05;1.23;;;1.50;81.70;;;;;;5061343;28;20024;-58
2023/04/04 00:24:34;;;;;;;3.72;1.42;;;1.40;83.50;;;;;;5062894;28;20028;-57
2023/04/04 00:27:00;;;;;;;3.08;2.08;;;1.20;84.40;;;;;;5066406;28;20036;-58
2023/04/04 00:29:26;;;;;;;7.10;2.85;;;1.10;85.30;;;;;;5064346;28;20028;-58
2023/04/04 00:31:52;;;;;;;2.13;1.70;;;1.00;83.50;;;;;;5063925;28;20047;-57
2023/04/04 00:34:18;;;;;;;4.00;1.98;;;0.90;84.70;;;;;;5060343;28;20144;-59
2023/04/04 00:36:43;;;;;;;3.30;2.00;;;0.90;84.20;;;;;;5060518;28;20108;-57
2023/04/04 00:39:09;;;;;;;3.47;1.65;;;0.80;86.70;;;;;;5059679;28;20370;-57
2023/04/04 00:41:35;;;;;;;2.35;1.70;;;0.70;87.70;;;;;;5056213;28;20044;-58
2023/04/04 00:44:00;;;;;;;12.30;2.55;;;0.70;88.90;;;;;;5059827;28;20750;-57
2023/04/04 00:46:28;;;;;;;1.85;1.35;;;0.60;89.60;;;;;;5062869;28;20539;-58
2023/04/04 00:48:54;;;;;;;4.95;2.15;;;0.60;89.50;;;;;;5063336;28;20024;-58
2023/04/04 00:51:20;;;;;;;2.53;1.90;;;0.60;86.70;;;;;;5059064;28;20043;-57
2023/04/04 00:53:47;;;;;;;5.15;2.67;;;0.60;88.20;;;;;;5061480;28;20025;-57
2023/04/04 00:56:14;;;;;;;4.13;1.90;;;0.50;89.80;;;;;;5061055;28;20056;-57
2023/04/04 00:58:44;;;;;;;3.80;2.05;;;0.40;90.30;;;;;;5064969;28;20017;-58
2023/04/04 01:01:10;;;;;;;2.03;1.58;;;0.30;90.20;;;;;;5059992;28;20546;-57
2023/04/04 01:03:36;;;;;;;2.40;1.75;;;0.20;90.30;;;;;;5057753;28;20104;-57
2023/04/04 01:06:02;;;;;;;3.25;1.52;;;0.10;90.50;;;;;;5060661;28;20037;-57
2023/04/04 01:08:29;;;;;;;3.13;2.75;;;0.10;90.70;;;;;;5058647;28;20025;-58
2023/04/04 01:10:55;;;;;;;5.85;2.45;;;0.00;90.60;;;;;;5058642;28;20059;-57
2023/04/04 01:13:21;;;;;;;2.13;1.55;;;-0.10;91.30;;;;;;5057210;28;20289;-58
2023/04/04 01:15:47;;;;;;;4.45;1.27;;;-0.10;91.60;;;;;;5058858;28;20025;-56
2023/04/04 01:18:17;;;;;;;2.53;1.33;;;-0.10;89.20;;;;;;5070436;28;20025;-57
2023/04/04 01:20:59;;;;;;;3.50;1.33;;;0.00;88.30;;;;;;5060220;28;20029;-58
2023/04/04 01:23:42;;;;;;;2.50;1.75;;;0.10;87.30;;;;;;5060703;28;20036;-56
2023/04/04 01:26:08;;;;;;;2.50;1.50;;;0.20;87.10;;;;;;5060529;28;20037;-57
2023/04/04 01:28:34;;;;;;;3.10;2.00;;;0.20;87.50;;;;;;5061084;28;20028;-58
2023/04/04 01:31:03;;;;;;;3.08;1.80;;;0.20;86.20;;;;;;5060842;28;20033;-57
2023/04/04 01:33:33;;;;;;;3.17;1.88;;;0.20;86.10;;;;;;5062831;28;20365;-57
2023/04/04 01:36:26;;;;;;;4.45;1.90;;;0.20;87.60;;;;;;5059559;28;20037;-57
2023/04/04 01:38:58;;;;;;;5.20;2.28;;;0.10;87.90;;;;;;5059403;28;20029;-57
2023/04/04 01:41:24;;;;;;;6.35;2.58;;;0.10;87.10;;;;;;5060620;28;20095;-56
2023/04/04 01:43:51;;;;;;;6.35;3.13;;;0.10;87.70;;;;;;5059702;28;20032;-58
2023/04/04 01:46:17;;;;;;;5.93;2.22;;;0.00;88.90;;;;;;5064150;28;20021;-58
2023/04/04 01:48:45;;;;;;;5.90;2.78;;;0.00;87.70;;;;;;5060817;28;20040;-56
2023/04/04 01:51:11;;;;;;;5.22;2.70;;;0.00;87.60;;;;;;5060167;28;20119;-56
2023/04/04 01:53:37;;;;;;;8.40;2.58;;;-0.10;87.80;;;;;;5060787;28;20059;-56
2023/04/04 01:56:03;;;;;;;5.95;2.22;;;-0.10;89.30;;;;;;5062095;28;20060;-56
2023/04/04 01:58:29;;;;;;;4.60;2.45;;;-0.20;88.90;;;;;;5060346;28;20017;-57
2023/04/04 02:00:55;;;;;;;9.63;2.17;;;-0.20;90.00;;;;;;5061912;28;20489;-56
2023/04/04 02:03:21;;;;;;;7.45;2.05;;;-0.30;89.10;;;;;;5060945;28;20029;-58
2023/04/04 02:05:48;;;;;;;6.47;1.92;;;-0.30;89.80;;;;;;5061764;28;20067;-57
2023/04/04 02:08:16;;;;;;;7.22;2.33;;;-0.30;89.70;;;;;;5062337;28;20071;-57
2023/04/04 02:10:42;;;;;;;3.28;1.98;;;-0.40;90.00;;;;;;5058114;28;20029;-57
2023/04/04 02:13:08;;;;;;;10.52;2.33;;;-0.40;90.40;;;;;;5060507;28;20119;-58
2023/04/04 02:15:34;;;;;;;3.25;1.63;;;-0.50;90.80;;;;;;5058683;28;20044;-57
2023/04/04 02:18:00;;;;;;;4.20;1.90;;;-0.50;90.50;;;;;;5061464;28;20028;-57
2023/04/04 02:20:26;;;;;;;2.60;1.50;;;-0.60;90.60;;;;;;5063313;28;20040;-56
2023/04/04 02:22:55;;;;;;;3.50;1.75;;;-0.60;90.90;;;;;;5061213;28;20106;-58
2023/04/04 02:25:23;;;;;;;6.20;1.80;;;-0.60;91.00;;;;;;5056381;28;20029;-57
2023/04/04 02:27:48;;;;;;;3.55;1.80;;;-0.60;91.20;;;;;;5061808;28;20082;-57
2023/04/04 02:30:14;;;;;;;7.50;2.45;;;-0.70;91.50;;;;;;5063092;28;20032;-58
2023/04/04 02:32:41;;;;;;;8.30;3.72;;;-0.70;91.70;;;;;;5059171;28;20091;-57
2023/04/04 02:35:07;;;;;;;7.80;4.22;;;-0.70;92.50;;;;;;5058498;28;20056;-58
2023/04/04 02:37:32;;;;;;;13.30;4.72;;;-0.70;91.80;;;;;;5062352;28;20064;-56
2023/04/04 02:39:58;;;;;;;13.18;7.10;;;-0.70;91.80;;;;;;5060090;28;20527;-57
2023/04/04 02:42:24;;;;;;;29.50;10.68;;;-0.70;91.90;;;;;;5059789;28;20091;-57
2023/04/04 02:44:49;;;;;;;26.92;10.20;;;-0.80;92.00;;;;;;5062499;28;20142;-58
2023/04/04 02:47:15;;;;;;;33.67;12.60;;;-0.80;92.20;;;;;;5060862;28;20032;-57
2023/04/04 02:49:41;;;;;;;21.30;10.35;;;-0.90;92.80;;;;;;5061769;28;20500;-57
2023/04/04 02:52:07;;;;;;;17.35;9.15;;;-1.00;93.30;;;;;;5058330;28;20033;-57
2023/04/04 02:54:33;;;;;;;16.15;7.72;;;-1.10;93.80;;;;;;5061856;28;20116;-57
2023/04/04 02:56:58;;;;;;;15.75;7.82;;;-1.10;94.40;;;;;;5061367;28;20136;-57
2023/04/04 02:59:24;;;;;;;11.80;6.80;;;-1.10;94.10;;;;;;5058634;28;20044;-57
2023/04/04 03:01:50;;;;;;;11.90;6.40;;;-1.10;94.40;;;;;;5060025;28;20530;-57
2023/04/04 03:04:18;;;;;;;11.27;7.15;;;-1.10;94.80;;;;;;5059661;28;20485;-56
2023/04/04 03:06:44;;;;;;;13.50;6.97;;;-1.20;95.10;;;;;;5059574;28;20031;-59
2023/04/04 03:09:10;;;;;;;21.35;10.48;;;-1.20;96.40;;;;;;5060337;28;20439;-57
2023/04/04 03:11:35;;;;;;;21.95;8.15;;;-1.20;96.50;;;;;;5058964;28;20041;-58
2023/04/04 03:14:01;;;;;;;15.65;6.82;;;-1.20;96.00;;;;;;5058293;28;20063;-58
2023/04/04 03:16:28;;;;;;;12.50;6.85;;;-1.20;96.10;;;;;;5060072;28;20077;-58
2023/04/04 03:18:54;;;;;;;25.27;10.38;;;-1.20;96.10;;;;;;5057799;28;20558;-58
2023/04/04 03:21:20;;;;;;;34.58;12.85;;;-1.20;96.60;;;;;;5057672;28;20568;-57
2023/04/04 03:23:46;;;;;;;21.58;10.75;;;-1.20;97.20;;;;;;5058767;28;20158;-56
2023/04/04 03:26:11;;;;;;;26.48;11.13;;;-1.20;96.60;;;;;;5057327;28;20025;-58
2023/04/04 03:28:38;;;;;;;25.52;10.25;;;-1.30;96.70;;;;;;5062422;28;20123;-56
2023/04/04 03:31:05;;;;;;;27.73;11.48;;;-1.30;96.50;;;;;;5061042;28;20037;-58
2023/04/04 03:33:32;;;;;;;21.88;10.32;;;-1.30;96.90;;;;;;5059247;28;20041;-56
2023/04/04 03:35:58;;;;;;;21.27;9.93;;;-1.30;97.70;;;;;;5061000;28;20032;-56
2023/04/04 03:38:24;;;;;;;21.45;11.63;;;-1.40;98.30;;;;;;5061521;28;20032;-55
2023/04/04 03:40:50;;;;;;;26.77;11.55;;;-1.50;99.50;;;;;;5058877;28;20044;-58
2023/04/04 03:43:16;;;;;;;22.13;11.23;;;-1.60;99.90;;;;;;5060094;28;20025;-57
2023/04/04 03:45:42;;;;;;;10.80;5.53;;;-1.70;99.90;;;;;;5060092;28;20036;-58
2023/04/04 03:48:10;;;;;;;17.02;6.07;;;-1.70;99.90;;;;;;5062062;28;20079;-56
2023/04/04 03:50:36;;;;;;;7.95;4.25;;;-1.80;99.90;;;;;;5060297;28;20032;-57
2023/04/04 03:53:01;;;;;;;8.40;4.57;;;-1.80;99.90;;;;;;5058895;28;21006;-57
2023/04/04 03:55:27;;;;;;;11.13;6.13;;;-1.90;99.90;;;;;;5061447;28;20021;-58
2023/04/04 03:57:53;;;;;;;9.68;7.07;;;-1.80;99.90;;;;;;5057403;28;20013;-56
2023/04/04 04:00:19;;;;;;;12.23;6.32;;;-1.90;99.90;;;;;;5057964;28;20036;-57
2023/04/04 04:02:45;;;;;;;8.73;4.90;;;-1.90;99.90;;;;;;5059028;28;20026;-57
2023/04/04 04:05:10;;;;;;;8.57;5.43;;;-1.90;99.90;;;;;;5059132;28;20116;-56
2023/04/04 04:07:36;;;;;;;7.80;4.70;;;-2.00;99.90;;;;;;5059351;28;20040;-58
2023/04/04 04:10:02;;;;;;;9.05;5.10;;;-2.00;99.90;;;;;;5058022;28;20035;-58
2023/04/04 04:12:28;;;;;;;13.93;8.30;;;-2.00;99.90;;;;;;5058920;28;20039;-58
2023/04/04 04:14:53;;;;;;;19.45;6.85;;;-2.10;99.90;;;;;;5056865;28;20468;-57
2023/04/04 04:17:19;;;;;;;10.48;5.75;;;-2.10;99.90;;;;;;5056870;28;20037;-57
2023/04/04 04:19:45;;;;;;;12.00;6.05;;;-2.00;99.90;;;;;;5058342;28;20495;-56
2023/04/04 04:22:11;;;;;;;11.10;5.22;;;-2.00;99.90;;;;;;5058194;28;20029;-58
2023/04/04 04:24:36;;;;;;;8.10;5.13;;;-2.00;99.90;;;;;;5059663;28;20388;-57
2023/04/04 04:27:02;;;;;;;14.70;5.32;;;-2.10;99.90;;;;;;5060956;28;20036;-57
2023/04/04 04:29:27;;;;;;;10.40;4.85;;;-2.10;99.90;;;;;;5064444;28;20036;-57
2023/04/04 04:31:53;;;;;;;5.03;2.22;;;-2.10;99.90;;;;;;5063393;28;20138;-58
2023/04/04 04:34:18;;;;;;;4.65;2.47;;;-2.20;99.90;;;;;;5061794;28;20545;-56
2023/04/04 04:36:44;;;;;;;5.38;2.13;;;-2.20;99.90;;;;;;5061082;28;20021;-58
2023/04/04 04:39:10;;;;;;;2.55;2.05;;;-2.20;99.90;;;;;;5062408;28;20488;-57
2023/04/04 04:41:35;;;;;;;4.22;2.20;;;-2.30;99.90;;;;;;5059987;28;20037;-57
2023/04/04 04:44:01;;;;;;;3.95;3.08;;;-2.30;99.90;;;;;;5062767;28;20412;-55
2023/04/04 04:46:26;;;;;;;3.03;2.15;;;-2.30;99.90;;;;;;5060855;28;20033;-57
2023/04/04 04:48:52;;;;;;;4.53;2.45;;;-2.30;99.90;;;;;;5060680;28;20028;-58
2023/04/04 04:51:18;;;;;;;5.60;3.63;;;-2.30;99.90;;;;;;5060340;28;20119;-57
2023/04/04 04:53:43;;;;;;;3.40;2.75;;;-2.30;99.90;;;;;;5063363;28;20128;-59
2023/04/04 04:56:09;;;;;;;3.70;2.03;;;-2.30;99.90;;;;;;5063723;28;20082;-57
2023/04/04 04:58:35;;;;;;;4.22;2.10;;;-2.30;99.90;;;;;;5063739;28;20061;-56
2023/04/04 05:01:00;;;;;;;5.95;2.40;;;-2.40;99.90;;;;;;5064762;28;20377;-58
2023/04/04 05:03:26;;;;;;;8.43;2.47;;;-2.40;99.90;;;;;;5061456;28;20043;-55
2023/04/04 05:05:52;;;;;;;3.78;2.75;;;-2.40;99.90;;;;;;5063154;28;20029;-58
2023/04/04 05:08:17;;;;;;;4.18;2.47;;;-2.50;99.90;;;;;;5061728;28;20489;-57
2023/04/04 05:10:43;;;;;;;8.48;2.58;;;-2.40;99.90;;;;;;5063647;28;20058;-58
2023/04/04 05:13:09;;;;;;;5.45;2.70;;;-2.40;99.90;;;;;;5063184;28;20056;-58
2023/04/04 05:15:35;;;;;;;3.03;2.33;;;-2.40;99.90;;;;;;5063544;28;20509;-58
2023/04/04 05:18:01;;;;;;;6.47;3.17;;;-2.40;99.90;;;;;;5059591;28;20392;-57
2023/04/04 05:20:27;;;;;;;2.78;2.47;;;-2.40;99.90;;;;;;5064608;28;20093;-56
2023/04/04 05:22:52;;;;;;;4.13;2.50;;;-2.40;99.90;;;;;;5061269;28;20571;-57
2023/04/04 05:25:18;;;;;;;4.03;2.75;;;-2.40;99.90;;;;;;5060134;28;20517;-56
2023/04/04 05:27:47;;;;;;;4.28;2.72;;;-2.30;99.90;;;;;;5059687;28;20032;-60
2023/04/04 05:30:13;;;;;;;4.93;3.60;;;-2.30;99.90;;;;;;5061317;28;20382;-60
2023/04/04 05:32:39;;;;;;;4.40;2.50;;;-2.20;99.90;;;;;;5059780;28;20700;-58
2023/04/04 05:35:05;;;;;;;6.32;5.22;;;-2.10;99.90;;;;;;5062328;28;20017;-58
2023/04/04 05:37:31;;;;;;;11.38;4.75;;;-2.00;99.90;;;;;;5061481;28;20021;-56
2023/04/04 05:39:56;;;;;;;7.97;6.07;;;-2.00;99.90;;;;;;5059322;28;20082;-58
2023/04/04 05:42:22;;;;;;;9.10;6.00;;;-1.90;99.90;;;;;;5058206;28;20030;-58
2023/04/04 05:44:47;;;;;;;11.07;5.78;;;-1.90;99.90;;;;;;5059692;28;20025;-58
2023/04/04 05:47:13;;;;;;;20.70;6.25;;;-1.80;99.90;;;;;;5059130;28;20378;-56
2023/04/04 05:49:39;;;;;;;12.40;6.68;;;-1.70;99.90;;;;;;5061398;28;20607;-58
2023/04/04 05:52:05;;;;;;;13.70;5.75;;;-1.60;99.90;;;;;;5062140;28;20040;-57
2023/04/04 05:54:30;;;;;;;11.07;5.05;;;-1.60;99.90;;;;;;5058736;28;20143;-57
2023/04/04 05:56:56;;;;;;;11.32;5.35;;;-1.50;99.90;;;;;;5058376;28;20032;-58
2023/04/04 05:59:22;;;;;;;14.20;5.38;;;-1.50;99.90;;;;;;5052667;28;20717;-58
2023/04/04 06:01:47;;;;;;;6.18;4.55;;;-1.40;99.90;;;;;;5058386;28;20067;-57
2023/04/04 06:04:13;;;;;;;13.35;4.45;;;-1.30;99.90;;;;;;5057505;28;20020;-58
2023/04/04 06:06:39;;;;;;;7.57;4.05;;;-1.20;99.90;;;;;;5057048;28;20143;-58
2023/04/04 06:09:05;;;;;;;11.98;4.10;;;-1.10;99.90;;;;;;5056298;28;20614;-58
2023/04/04 06:11:30;;;;;;;10.30;4.63;;;-1.00;99.90;;;;;;5056395;28;20033;-57
2023/04/04 06:13:56;;;;;;;6.53;4.85;;;-0.90;99.90;;;;;;5057569;28;20039;-57
2023/04/04 06:16:22;;;;;;;7.10;5.07;;;-0.90;99.90;;;;;;5055669;28;20424;-58
2023/04/04 06:18:48;;;;;;;7.63;4.78;;;-0.80;99.90;;;;;;5057806;28;20049;-58
2023/04/04 06:21:13;;;;;;;7.40;4.07;;;-0.60;99.90;;;;;;5053989;28;20040;-57
2023/04/04 06:23:39;;;;;;;6.85;4.43;;;-0.40;99.90;;;;;;5056115;28;20440;-61
2023/04/04 06:26:06;;;;;;;8.38;5.28;;;-0.20;99.90;;;;;;5057788;28;20029;-60
2023/04/04 06:28:31;;;;;;;7.18;5.53;;;0.00;99.90;;;;;;5056048;28;20024;-60
2023/04/04 06:30:57;;;;;;;15.05;4.82;;;0.20;99.90;;;;;;5057469;28;20044;-60
2023/04/04 06:33:23;;;;;;;14.82;5.28;;;0.40;99.90;;;;;;5054314;28;20029;-60
2023/04/04 06:35:49;;;;;;;8.98;5.25;;;0.50;99.90;;;;;;5057865;28;20037;-60
2023/04/04 06:38:14;;;;;;;6.80;5.22;;;0.70;99.90;;;;;;5055822;28;20115;-57
2023/04/04 06:40:40;;;;;;;13.35;6.00;;;0.80;99.90;;;;;;5055598;28;20037;-57
2023/04/04 06:43:06;;;;;;;6.90;5.07;;;0.90;99.90;;;;;;5056621;28;20020;-57
2023/04/04 06:45:34;;;;;;;7.90;5.22;;;1.00;99.90;;;;;;5056433;28;20130;-58
2023/04/04 06:48:01;;;;;;;6.38;5.35;;;1.10;99.90;;;;;;5058820;28;20515;-56
2023/04/04 06:50:31;;;;;;;6.75;4.60;;;1.20;99.90;;;;;;5058720;28;20035;-57
2023/04/04 06:52:56;;;;;;;9.55;5.03;;;1.20;99.90;;;;;;5061009;28;20599;-58
2023/04/04 06:55:22;;;;;;;9.77;4.63;;;1.30;99.90;;;;;;5056266;28;20023;-58
2023/04/04 06:57:48;;;;;;;7.97;5.90;;;1.40;99.90;;;;;;5061859;28;20037;-60
2023/04/04 07:00:14;;;;;;;8.27;4.78;;;1.40;99.90;;;;;;5056958;28;20071;-59
2023/04/04 07:02:40;;;;;;;8.50;5.03;;;1.50;99.90;;;;;;5062134;28;20060;-59
2023/04/04 07:05:07;;;;;;;6.15;5.22;;;1.50;99.90;;;;;;5059919;28;20031;-59
2023/04/04 07:07:32;;;;;;;7.30;4.43;;;1.60;99.90;;;;;;5059610;28;20036;-58
2023/04/04 07:09:58;;;;;;;6.57;4.50;;;1.60;99.90;;;;;;5059508;28;20098;-57
2023/04/04 07:12:23;;;;;;;5.82;5.22;;;1.80;99.90;;;;;;5059851;28;20059;-59
2023/04/04 07:14:49;;;;;;;6.78;5.38;;;2.00;99.90;;;;;;5059641;28;20032;-57
2023/04/04 07:17:15;;;;;;;6.45;5.35;;;2.20;99.90;;;;;;5060673;28;20032;-58
2023/04/04 07:19:40;;;;;;;6.38;4.65;;;2.40;99.90;;;;;;5059211;28;20025;-58
2023/04/04 07:22:06;;;;;;;5.20;4.65;;;2.60;99.90;;;;;;5059941;28;20036;-57
2023/04/04 07:24:32;;;;;;;5.82;4.50;;;2.80;99.90;;;;;;5059182;28;20107;-58
2023/04/04 07:26:57;;;;;;;8.77;5.13;;;3.00;99.90;;;;;;5061436;28;20042;-57
2023/04/04 07:29:23;;;;;;;5.90;4.72;;;3.10;99.50;;;;;;5055875;28;20044;-59
2023/04/04 07:31:49;;;;;;;5.53;4.72;;;3.20;99.20;;;;;;5059402;28;20029;-57
2023/04/04 07:34:15;;;;;;;8.25;4.88;;;3.30;99.90;;;;;;5061031;28;20078;-57
2023/04/04 07:36:41;;;;;;;6.10;3.80;;;3.40;98.20;;;;;;5058366;28;20020;-58
2023/04/04 07:39:07;;;;;;;6.10;3.90;;;3.50;97.70;;;;;;5058145;28;20078;-57
2023/04/04 07:41:33;;;;;;;4.40;3.50;;;3.60;94.90;;;;;;5056404;28;20489;-58
2023/04/04 07:43:58;;;;;;;9.30;4.38;;;3.80;95.50;;;;;;5056011;28;20033;-58
2023/04/04 07:46:26;;;;;;;8.30;3.80;;;4.00;96.60;;;;;;5059900;28;20047;-58
2023/04/04 07:48:52;;;;;;;4.40;3.78;;;4.30;95.80;;;;;;5058831;28;20021;-58
2023/04/04 07:51:19;;;;;;;3.85;3.47;;;4.50;95.80;;;;;;5063713;28;20674;-57
2023/04/04 07:53:45;;;;;;;4.40;3.63;;;4.80;92.10;;;;;;5058210;28;20025;-58
2023/04/04 07:56:10;;;;;;;4.88;4.05;;;5.00;90.10;;;;;;5056158;28;20528;-58
2023/04/04 07:58:36;;;;;;;5.88;4.30;;;4.90;85.60;;;;;;5059583;28;20071;-57
2023/04/04 08:01:02;;;;;;;7.68;4.30;;;4.80;86.40;;;;;;5059888;28;20119;-59
2023/04/04 08:03:28;;;;;;;12.38;7.82;;;4.70;90.50;;;;;;5057935;28;20413;-58
2023/04/04 08:05:53;;;;;;;9.23;6.15;;;4.80;91.00;;;;;;5064167;28;20024;-57
2023/04/04 08:08:19;;;;;;;11.13;6.05;;;4.80;90.10;;;;;;5061109;28;20033;-57
2023/04/04 08:10:45;;;;;;;6.28;3.97;;;4.90;88.50;;;;;;5062907;28;20028;-58
2023/04/04 08:13:11;;;;;;;7.25;4.82;;;4.80;87.20;;;;;;5063021;28;20028;-58
2023/04/04 08:15:37;;;;;;;3.42;3.13;;;4.80;83.80;;;;;;5051010;28;20070;-58
2023/04/04 08:18:03;;;;;;;3.83;2.92;;;4.60;84.00;;;;;;5061817;28;20475;-56
2023/04/04 08:20:29;;;;;;;4.60;3.00;;;4.60;82.00;;;;;;5064129;28;20060;-56
2023/04/04 08:22:55;;;;;;;8.40;3.53;;;4.40;82.00;;;;;;5062076;28;20028;-57
2023/04/04 08:25:20;;;;;;;6.88;2.42;;;4.30;80.80;;;;;;5060050;28;20117;-57
2023/04/04 08:27:46;;;;;;;3.35;2.33;;;4.10;79.90;;;;;;5063271;28;20017;-58
2023/04/04 08:30:13;;;;;;;3.42;1.85;;;4.00;78.60;;;;;;5060597;28;20029;-58
2023/04/04 08:32:40;;;;;;;2.85;2.20;;;3.80;77.80;;;;;;5078798;28;20029;-58
2023/04/04 08:35:06;;;;;;;3.55;2.15;;;3.70;78.50;;;;;;5064076;28;20035;-57
2023/04/04 08:37:34;;;;;;;8.82;2.47;;;3.60;79.70;;;;;;5065394;28;20497;-58
2023/04/04 08:40:00;;;;;;;4.30;2.53;;;3.60;79.20;;;;;;5062971;28;20063;-57
2023/04/04 08:42:27;;;;;;;4.05;2.40;;;3.70;83.10;;;;;;5060399;28;20515;-57
2023/04/04 08:44:56;;;;;;;4.90;2.50;;;3.80;82.70;;;;;;5062258;28;20116;-57
2023/04/04 08:47:24;;;;;;;4.25;2.78;;;4.10;82.70;;;;;;5061885;28;20116;-57
2023/04/04 08:49:51;;;;;;;2.80;2.50;;;4.30;82.20;;;;;;5062051;28;20021;-59
2023/04/04 08:52:19;;;;;;;5.55;2.85;;;4.50;80.00;;;;;;5061932;28;20020;-56
2023/04/04 08:54:46;;;;;;;3.08;2.60;;;4.60;76.60;;;;;;5061629;28;20091;-58
2023/04/04 08:57:12;;;;;;;3.38;2.85;;;4.80;81.10;;;;;;5065194;28;20059;-58
2023/04/04 08:59:38;;;;;;;3.83;2.92;;;5.00;79.70;;;;;;5062184;28;20068;-58
2023/04/04 09:02:24;;;;;;;5.55;3.25;;;5.20;76.90;;;;;;5061237;28;20037;-58
2023/04/04 09:04:52;;;;;;;3.42;2.80;;;5.30;76.30;;;;;;5058232;28;20029;-57
2023/04/04 09:07:19;;;;;;;3.58;2.80;;;5.30;76.50;;;;;;5075875;28;20504;-57
2023/04/04 09:09:46;;;;;;;4.70;3.40;;;5.30;78.70;;;;;;5061781;28;20028;-58
2023/04/04 09:12:13;;;;;;;4.38;3.30;;;5.40;75.70;;;;;;5062330;28;20036;-58
2023/04/04 09:14:40;;;;;;;3.70;2.47;;;5.40;75.60;;;;;;5061306;28;20401;-58
2023/04/04 09:17:07;;;;;;;6.80;3.08;;;5.40;74.60;;;;;;5060341;28;20439;-57
2023/04/04 09:19:33;;;;;;;5.85;3.85;;;5.30;73.90;;;;;;5062586;28;20272;-56
2023/04/04 09:21:58;;;;;;;4.47;2.65;;;5.20;74.20;;;;;;5066078;28;20037;-57
2023/04/04 09:24:39;;;;;;;7.53;3.78;;;5.20;74.90;;;;;;5059458;28;20031;-56
2023/04/04 09:27:08;;;;;;;3.10;2.63;;;5.10;75.00;;;;;;5062087;28;20033;-59
2023/04/04 09:29:33;;;;;;;3.67;3.20;;;5.10;76.20;;;;;;5064156;28;20260;-57
2023/04/04 09:31:59;;;;;;;4.45;3.00;;;5.20;78.20;;;;;;5059602;28;20455;-57
2023/04/04 09:34:27;;;;;;;3.58;3.20;;;5.20;76.40;;;;;;5059270;28;20144;-56
2023/04/04 09:36:53;;;;;;;4.38;3.78;;;5.20;76.80;;;;;;5060409;28;20460;-58
2023/04/04 09:39:19;;;;;;;4.88;3.25;;;5.20;78.80;;;;;;5062205;28;20021;-59
2023/04/04 09:41:45;;;;;;;5.07;3.58;;;5.10;78.00;;;;;;5063192;28;20064;-57
2023/04/04 09:44:12;;;;;;;7.10;3.28;;;5.10;78.10;;;;;;5063675;28;20053;-56
2023/04/04 09:46:38;;;;;;;10.73;3.50;;;5.00;76.90;;;;;;5062156;28;20056;-56
2023/04/04 09:49:04;;;;;;;5.82;2.97;;;5.10;79.00;;;;;;5061597;28;20032;-59
2023/04/04 09:51:52;;;;;;;5.13;3.47;;;5.20;76.50;;;;;;5060257;28;20534;-56
2023/04/04 09:54:22;;;;;;;4.72;3.00;;;5.40;77.90;;;;;;5059290;28;20118;-58
2023/04/04 09:56:49;;;;;;;4.18;3.40;;;5.60;78.50;;;;;;5060153;28;20040;-59
2023/04/04 09:59:16;;;;;;;3.85;3.42;;;6.00;78.20;;;;;;5059097;28;20021;-58
2023/04/04 10:01:44;;;;;;;5.35;3.97;;;6.30;71.60;;;;;;5058817;28;20036;-58
2023/04/04 10:04:10;;;;;;;4.13;3.45;;;6.20;71.40;;;;;;5059867;28;20024;-58
2023/04/04 10:06:36;;;;;;;5.13;4.40;;;6.10;73.00;;;;;;5060483;28;20119;-57
2023/04/04 10:09:03;;;;;;;4.30;3.30;;;6.00;72.50;;;;;;5060024;28;20059;-58
2023/04/04 10:11:33;;;;;;;3.67;3.15;;;5.90;73.50;;;;;;5061026;28;20032;-59
2023/04/04 10:14:02;;;;;;;5.55;4.60;;;5.90;71.20;;;;;;5061880;28;20041;-58
2023/04/04 10:16:31;;;;;;;4.53;3.88;;;5.50;72.70;;;;;;5057830;28;20032;-57
2023/04/04 10:18:58;;;;;;;7.88;4.22;;;5.30;74.20;;;;;;5059491;28;20060;-57
2023/04/04 10:21:26;;;;;;;8.85;5.82;;;5.20;74.40;;;;;;5061151;28;20462;-57
2023/04/04 10:23:53;;;;;;;6.88;4.15;;;5.20;73.30;;;;;;5062471;28;20037;-57
2023/04/04 10:26:18;;;;;;;3.65;3.30;;;5.10;75.90;;;;;;5059274;28;20036;-58
2023/04/04 10:28:44;;;;;;;5.15;3.75;;;5.20;76.30;;;;;;5059630;28;20036;-57
2023/04/04 10:31:22;;;;;;;4.68;3.10;;;5.20;75.30;;;;;;5054860;28;20726;-58
2023/04/04 10:34:11;;;;;;;4.60;3.38;;;5.30;74.70;;;;;;5059847;28;20101;-58
2023/04/04 10:36:52;;;;;;;6.32;4.35;;;5.20;73.60;;;;;;5060010;28;20090;-57
2023/04/04 10:39:51;;;;;;;4.10;3.53;;;5.30;74.40;;;;;;5059702;28;20052;-59
2023/04/04 10:42:18;;;;;;;4.05;3.28;;;5.50;74.60;;;;;;5059822;28;20143;-59
2023/04/04 10:44:45;;;;;;;3.50;2.72;;;5.70;77.10;;;;;;5055432;28;20039;-58
2023/04/04 10:47:18;;;;;;;5.18;3.25;;;6.00;76.80;;;;;;5058144;28;20039;-59
2023/04/04 10:49:45;;;;;;;4.60;3.50;;;6.40;74.80;;;;;;5055792;28;20029;-57
2023/04/04 10:52:13;;;;;;;5.28;4.78;;;6.70;71.60;;;;;;5060146;28;20162;-57
2023/04/04 10:54:40;;;;;;;5.03;4.15;;;6.70;69.20;;;;;;5056781;28;20037;-60
2023/04/04 10:57:06;;;;;;;4.88;3.35;;;6.60;67.90;;;;;;5059595;28;20032;-58
2023/04/04 10:59:32;;;;;;;4.47;3.42;;;6.20;69.10;;;;;;5062833;28;20389;-56
2023/04/04 11:01:58;;;;;;;4.32;3.40;;;5.90;71.30;;;;;;5061121;28;20069;-57
2023/04/04 11:04:37;;;;;;;5.18;2.75;;;5.80;74.30;;;;;;5061521;28;20464;-58
2023/04/04 11:07:08;;;;;;;4.43;3.00;;;5.90;74.30;;;;;;5058859;28;20517;-57
2023/04/04 11:09:50;;;;;;;4.30;3.50;;;6.00;73.10;;;;;;5058943;28;20036;-57
2023/04/04 11:12:25;;;;;;;3.45;3.15;;;6.10;71.80;;;;;;5055961;28;20128;-56
2023/04/04 11:15:07;;;;;;;3.85;2.42;;;6.30;70.80;;;;;;5059026;28;20085;-57
2023/04/04 11:17:48;;;;;;;5.72;3.13;;;6.20;69.10;;;;;;5057477;28;20053;-57
2023/04/04 11:20:22;;;;;;;3.15;2.85;;;6.00;69.10;;;;;;5058497;28;20025;-58
2023/04/04 11:23:05;;;;;;;4.10;3.00;;;5.90;68.60;;;;;;5060533;28;20086;-57
2023/04/04 11:25:31;;;;;;;3.50;3.20;;;5.90;70.30;;;;;;5056632;28;20108;-58
2023/04/04 11:27:58;;;;;;;7.85;3.00;;;6.10;71.50;;;;;;5059228;28;20025;-56
2023/04/04 11:30:25;;;;;;;3.45;2.60;;;6.40;69.40;;;;;;5057424;28;20056;-59
2023/04/04 11:32:51;;;;;;;11.57;3.53;;;6.70;72.80;;;;;;5058614;28;20033;-59
2023/04/04 11:35:17;;;;;;;2.90;2.42;;;7.00;70.50;;;;;;5060078;28;20119;-59
2023/04/04 11:37:52;;;;;;;4.88;3.17;;;7.20;66.00;;;;;;5060028;28;20044;-57
2023/04/04 11:40:18;;;;;;;3.53;3.20;;;7.20;67.30;;;;;;5061742;28;20024;-59
2023/04/04 11:42:49;;;;;;;3.92;3.22;;;7.10;69.30;;;;;;5064887;28;20036;-57
2023/04/04 11:45:18;;;;;;;;;;;6.90;68.30;;;;;;5062279;28;20033;-57
2023/04/04 11:47:48;;;;;;;4.05;2.85;;;7.00;66.80;;;;;;5061810;28;19955;-57
2023/04/04 11:50:14;;;;;;;7.22;3.15;;;6.80;67.50;;;;;;5063624;28;20094;-59
2023/04/04 11:52:44;;;;;;;5.93;3.00;;;6.70;67.60;;;;;;5063929;28;20087;-58
2023/04/04 11:55:18;;;;;;;2.63;2.42;;;6.70;66.20;;;;;;5063274;28;20016;-58
2023/04/04 11:57:46;;;;;;;5.65;2.50;;;6.50;66.70;;;;;;5049265;28;20623;-57
2023/04/04 12:00:27;;;;;;;4.63;3.17;;;6.40;66.40;;;;;;5063304;28;20465;-57
2023/04/04 12:02:54;;;;;;;4.10;3.13;;;6.40;67.00;;;;;;5059850;28;20029;-58
2023/04/04 12:05:21;;;;;;;3.50;2.75;;;6.40;66.80;;;;;;5063358;28;20044;-58
2023/04/04 12:07:47;;;;;;;4.72;2.80;;;6.40;68.50;;;;;;5063804;28;20028;-58
2023/04/04 12:10:13;;;;;;;5.00;3.55;;;6.60;68.10;;;;;;5058672;28;20031;-58
2023/04/04 12:12:40;;;;;;;6.00;3.10;;;6.70;67.70;;;;;;5066447;28;20012;-57
2023/04/04 12:15:07;;;;;;;3.30;2.90;;;6.90;65.30;;;;;;5065319;28;20029;-57
2023/04/04 12:17:38;;;;;;;5.93;3.35;;;6.80;67.00;;;;;;5062307;28;20496;-59
2023/04/04 12:20:06;;;;;;;5.78;3.35;;;7.00;66.20;;;;;;5067206;28;20040;-57
2023/04/04 12:22:36;;;;;;;4.82;3.25;;;7.20;65.40;;;;;;5063219;28;20027;-57
2023/04/04 12:25:04;;;;;;;5.82;5.18;;;7.30;67.10;;;;;;5065115;28;20033;-57
2023/04/04 12:27:30;;;;;;;4.40;3.30;;;7.30;65.90;;;;;;5064111;28;20121;-58
2023/04/04 12:29:59;;;;;;;6.50;3.63;;;7.30;67.20;;;;;;5063943;28;20022;-59
2023/04/04 12:32:26;;;;;;;7.53;3.60;;;7.40;66.20;;;;;;5062063;28;20025;-58
2023/04/04 12:34:51;;;;;;;4.72;3.15;;;7.40;64.00;;;;;;5077562;28;20044;-58
2023/04/04 12:37:20;;;;;;;3.80;3.00;;;7.20;64.00;;;;;;5060909;28;20090;-56
2023/04/04 12:39:51;;;;;;;4.63;3.53;;;7.00;64.30;;;;;;5064087;28;20108;-58
2023/04/04 12:42:23;;;;;;;4.45;2.83;;;6.80;65.40;;;;;;5062055;28;20028;-57
2023/04/04 12:44:51;;;;;;;2.95;2.35;;;6.90;66.30;;;;;;5067135;28;20032;-58
2023/04/04 12:47:18;;;;;;;2.90;2.35;;;6.90;65.70;;;;;;5060782;28;20029;-58
2023/04/04 12:49:49;;;;;;;4.55;2.70;;;6.90;64.70;;;;;;5059900;28;20048;-59